Resums METAR propers

 

LEGE - Gerona/Costa Bra, Spain
DistÓncia des de l'estaciˇ: S 12km
Actualitzaciˇ: 28/01/2022 03:30
Parcialment cobert
Parcialment cobert
 Vent del calm
Vent: Calma
Temperatura: 30°F , -1°C
Rosada: 30°F , -1°C
Humitat: 100%
Bar˛metre: 1029 hPa
Nuvolositat: Parcialment cobert
Visibilitat: 8 km
2022/01/28 02:30 LEGE 280230Z 00000KT 8000 3500N NSC M01/M01 Q1029